DAAP

Illizi Takhamalt Airport

Illizi, Algeria
TAF DAAP 142000Z 1421/1506 26010KT CAVOK
Issued Valid From Valid To
Dec-14 @ 20:00 UTC
(2 hours ago)
Dec-14 @ 21:00 UTC
(53 minutes ago)
Dec-15 @ 06:00 UTC
(in 8 hours)
Dec-14 @ 21:00 to Dec-15 @ 06:00
TAF DAAP 142000Z 1421/1506 26010KT CAVOK
Wind Visibility Clouds Conditions
260° at 10 knots 10,000+ meters
  • No significant clouds
TAF DAAP 142000Z 1421/1506 26010KT CAVOK
Issued Dec-14 @ 20:00 UTC
(2 hours ago)
Valid From Dec-14 @ 21:00 UTC
(53 minutes ago)
Valid To Dec-15 @ 06:00 UTC
(in 8 hours)
Dec-14 @ 21:00 - Dec-15 @ 06:00
Wind Visibility
260° at 10 knots 10,000+ meters
Clouds
  • No significant clouds
Conditions